Time;durP1;ratioP1;P1;durP2;ratioP2;P2;SDS_P1;SDS_P2;PMS_P1;PMS_P2;Temp;Humidity;BMP_temperature;BMP_pressure;BME280_temperature;BME280_humidity;BME280_pressure;Samples;Min_cycle;Max_cycle;Signal;HPM_P1;HPM_P2
2022/06/04 00:00:55;;;;;;;19.80;10.02;;;11.70;99.90;;;;;;4958967;29;20055;-58
2022/06/04 00:03:22;;;;;;;17.02;10.57;;;11.80;99.90;;;;;;4961095;29;20043;-57
2022/06/04 00:05:53;;;;;;;19.88;10.23;;;11.70;99.90;;;;;;4959600;29;20066;-58
2022/06/04 00:08:19;;;;;;;17.08;8.68;;;11.70;99.90;;;;;;4960794;29;20054;-58
2022/06/04 00:16:20;;;;;;;18.33;8.73;;;11.70;99.90;;;;;;4946321;29;20073;-58
2022/06/04 00:18:46;;;;;;;14.82;8.85;;;11.70;99.90;;;;;;4959238;29;20047;-58
2022/06/04 00:21:12;;;;;;;16.52;8.98;;;11.70;99.90;;;;;;4947696;29;20047;-58
2022/06/04 00:23:39;;;;;;;14.55;8.73;;;11.70;99.90;;;;;;4944563;29;20048;-57
2022/06/04 00:26:08;;;;;;;14.88;8.50;;;11.70;99.90;;;;;;4948099;29;20051;-58
2022/06/04 00:28:34;;;;;;;13.50;7.78;;;11.60;99.90;;;;;;4964408;29;20646;-57
2022/06/04 00:31:00;;;;;;;20.52;8.65;;;11.60;99.90;;;;;;4962043;29;20586;-58
2022/06/04 00:33:26;;;;;;;15.25;7.55;;;11.60;99.90;;;;;;4963947;29;20047;-57
2022/06/04 00:35:55;;;;;;;15.02;8.30;;;11.60;99.90;;;;;;4962970;29;20054;-58
2022/06/04 00:38:23;;;;;;;14.18;7.40;;;11.50;99.90;;;;;;4963643;29;20078;-58
2022/06/04 00:41:07;;;;;;;15.32;7.50;;;11.60;99.90;;;;;;4971184;28;20051;-58
2022/06/04 00:44:11;;;;;;;14.52;8.05;;;11.60;99.90;;;;;;4981501;28;20074;-57
2022/06/04 00:46:40;;;;;;;14.00;7.82;;;11.60;99.90;;;;;;4983315;28;20054;-58
2022/06/04 00:49:11;;;;;;;13.65;7.35;;;11.50;99.90;;;;;;4967390;28;20059;-59
2022/06/04 00:51:38;;;;;;;16.65;7.50;;;11.50;99.90;;;;;;4943492;29;20042;-57
2022/06/04 00:54:05;;;;;;;13.77;7.40;;;11.60;99.90;;;;;;4944909;29;20048;-58
2022/06/04 00:56:52;;;;;;;15.57;7.32;;;11.50;99.90;;;;;;4942895;29;20078;-58
2022/06/04 00:59:48;;;;;;;13.27;7.30;;;11.50;99.90;;;;;;4944600;29;20056;-58
2022/06/04 01:02:44;;;;;;;14.88;7.50;;;11.50;99.90;;;;;;4944257;29;20048;-58
2022/06/04 01:05:28;;;;;;;11.85;6.93;;;11.40;99.90;;;;;;4942651;29;20106;-58
2022/06/04 01:08:11;;;;;;;16.50;7.57;;;11.40;99.90;;;;;;4944565;29;20470;-58
2022/06/04 01:10:52;;;;;;;13.82;7.35;;;11.40;99.90;;;;;;4943958;29;20083;-58
2022/06/04 01:13:45;;;;;;;15.52;7.45;;;11.40;99.90;;;;;;4942711;29;20067;-58
2022/06/04 01:16:13;;;;;;;12.45;6.63;;;11.40;99.90;;;;;;4944601;29;20055;-58
2022/06/04 01:19:11;;;;;;;12.57;6.88;;;11.40;99.90;;;;;;4942808;29;20063;-58
2022/06/04 01:22:23;;;;;;;13.80;6.53;;;11.40;99.90;;;;;;4943140;29;20074;-58
2022/06/04 01:24:49;;;;;;;14.68;6.55;;;11.30;99.90;;;;;;4944335;29;20055;-57
2022/06/04 01:27:14;;;;;;;13.15;6.90;;;11.40;99.90;;;;;;4942438;29;20118;-57
2022/06/04 01:30:17;;;;;;;14.20;6.05;;;11.30;99.90;;;;;;4943423;29;20718;-58
2022/06/04 01:32:50;;;;;;;15.93;6.18;;;11.30;99.90;;;;;;4911078;29;20095;-58
2022/06/04 01:35:21;;;;;;;12.25;6.20;;;11.30;99.90;;;;;;4942138;29;20051;-58
2022/06/04 01:37:57;;;;;;;10.32;5.85;;;11.20;99.90;;;;;;4944115;29;20044;-58
2022/06/04 01:43:17;;;;;;;13.47;6.10;;;11.30;99.90;;;;;;4980630;28;20102;-59
2022/06/04 01:45:45;;;;;;;12.30;6.50;;;11.20;99.90;;;;;;4982710;28;20290;-59
2022/06/04 01:48:13;;;;;;;13.77;6.00;;;11.20;99.90;;;;;;4979780;28;20078;-58
2022/06/04 01:50:48;;;;;;;13.55;6.93;;;11.20;99.90;;;;;;4943738;29;20040;-58
2022/06/04 01:53:17;;;;;;;11.65;5.70;;;11.20;99.90;;;;;;4942712;29;20044;-59
2022/06/04 01:55:56;;;;;;;15.20;6.93;;;11.20;99.90;;;;;;4942726;29;20047;-59
2022/06/04 01:58:31;;;;;;;12.18;7.00;;;11.20;99.90;;;;;;4943837;29;20102;-62
2022/06/04 02:01:04;;;;;;;14.00;6.53;;;11.10;99.90;;;;;;4941568;29;20044;-56
2022/06/04 02:03:35;;;;;;;18.17;7.20;;;11.10;99.90;;;;;;4943401;29;20053;-57
2022/06/04 02:06:14;;;;;;;16.67;7.75;;;11.20;99.90;;;;;;4925109;29;20048;-56
2022/06/04 02:08:55;;;;;;;14.88;7.18;;;11.10;99.90;;;;;;4942139;29;20840;-57
2022/06/04 02:11:23;;;;;;;15.70;7.90;;;11.10;99.90;;;;;;4943802;29;20055;-57
2022/06/04 02:13:51;;;;;;;16.75;7.53;;;11.10;99.90;;;;;;4941359;29;20051;-59
2022/06/04 02:16:33;;;;;;;14.15;8.13;;;11.20;99.90;;;;;;4943332;29;20081;-58
2022/06/04 02:19:00;;;;;;;13.40;6.78;;;11.10;99.90;;;;;;4942561;29;20055;-57
2022/06/04 02:21:27;;;;;;;17.35;8.00;;;11.10;99.90;;;;;;4925062;29;20085;-57
2022/06/04 02:23:55;;;;;;;14.43;7.07;;;11.00;99.90;;;;;;4943245;29;20078;-57
2022/06/04 02:26:22;;;;;;;15.88;7.40;;;11.00;99.90;;;;;;4941271;29;20043;-58
2022/06/04 02:28:49;;;;;;;13.20;7.03;;;11.00;99.90;;;;;;4926027;29;20145;-57
2022/06/04 02:31:26;;;;;;;11.45;6.88;;;11.00;99.90;;;;;;4940894;29;20047;-57
2022/06/04 02:34:04;;;;;;;13.90;7.05;;;11.00;99.90;;;;;;4942568;29;20059;-57
2022/06/04 02:36:41;;;;;;;13.55;6.88;;;10.90;99.90;;;;;;4942672;29;20571;-56
2022/06/04 02:39:13;;;;;;;11.55;6.57;;;11.00;99.90;;;;;;4940634;29;20051;-57
2022/06/04 02:41:48;;;;;;;12.47;6.17;;;11.00;99.90;;;;;;4978878;28;20075;-56
2022/06/04 02:44:28;;;;;;;15.40;6.82;;;10.80;99.90;;;;;;4978715;28;20301;-57
2022/06/04 02:47:13;;;;;;;12.80;5.95;;;10.90;99.90;;;;;;4963166;28;20078;-59
2022/06/04 02:49:42;;;;;;;11.45;6.28;;;11.00;99.90;;;;;;4957181;28;20050;-58
2022/06/04 02:52:11;;;;;;;12.75;6.60;;;10.90;99.90;;;;;;4940524;29;20042;-59
2022/06/04 02:54:56;;;;;;;10.77;6.60;;;10.90;99.90;;;;;;4925514;29;20048;-58
2022/06/04 02:57:24;;;;;;;10.73;5.82;;;10.80;99.90;;;;;;4941152;29;20063;-57
2022/06/04 02:59:51;;;;;;;11.35;5.88;;;11.10;99.90;;;;;;4941436;29;20179;-59
2022/06/04 03:02:20;;;;;;;14.95;6.22;;;10.80;99.90;;;;;;4942429;29;20071;-58
2022/06/04 03:04:52;;;;;;;10.00;6.07;;;10.90;99.90;;;;;;4923483;29;20139;-59
2022/06/04 03:07:22;;;;;;;12.00;7.00;;;10.90;99.90;;;;;;4942834;29;20052;-58
2022/06/04 03:09:50;;;;;;;14.73;7.15;;;10.80;99.90;;;;;;4923476;29;20518;-58
2022/06/04 03:12:16;;;;;;;12.23;7.18;;;10.80;99.90;;;;;;4942231;29;20496;-58
2022/06/04 03:14:42;;;;;;;12.25;5.97;;;10.80;99.90;;;;;;4941476;29;20129;-58
2022/06/04 03:17:12;;;;;;;14.18;7.20;;;10.80;99.90;;;;;;4941231;29;20040;-59
2022/06/04 03:19:38;;;;;;;12.70;6.63;;;10.80;99.90;;;;;;4942241;29;20044;-58
2022/06/04 03:22:05;;;;;;;13.13;6.45;;;10.80;99.90;;;;;;4940066;29;20044;-59
2022/06/04 03:24:30;;;;;;;12.27;6.85;;;10.70;99.90;;;;;;4942391;29;20043;-59
2022/06/04 03:26:56;;;;;;;14.95;7.13;;;10.80;99.90;;;;;;4923241;29;20058;-58
2022/06/04 03:29:22;;;;;;;9.73;6.45;;;10.80;99.90;;;;;;4941873;29;20078;-60
2022/06/04 03:31:48;;;;;;;11.50;6.25;;;10.80;99.90;;;;;;4941085;29;20060;-58
2022/06/04 03:34:14;;;;;;;10.98;6.40;;;10.90;99.90;;;;;;4941168;29;20059;-58
2022/06/04 03:36:40;;;;;;;10.88;6.30;;;10.80;99.90;;;;;;4942248;29;20103;-59
2022/06/04 03:39:08;;;;;;;11.23;6.40;;;10.70;99.90;;;;;;4941853;29;20079;-59
2022/06/04 03:41:35;;;;;;;11.45;6.40;;;10.80;99.90;;;;;;4979413;28;20047;-58
2022/06/04 03:44:01;;;;;;;10.63;6.13;;;10.80;99.90;;;;;;4979016;28;20182;-58
2022/06/04 03:46:27;;;;;;;11.10;6.43;;;10.70;99.90;;;;;;4980457;28;20132;-59
2022/06/04 03:48:55;;;;;;;13.38;6.90;;;10.80;99.90;;;;;;4967721;28;20419;-58
2022/06/04 03:51:21;;;;;;;11.68;6.03;;;10.70;99.90;;;;;;4940954;29;20083;-59
2022/06/04 03:53:47;;;;;;;13.57;5.75;;;10.80;99.90;;;;;;4942291;29;20092;-59
2022/06/04 03:56:13;;;;;;;11.38;6.10;;;10.80;99.90;;;;;;4942578;29;20039;-59
2022/06/04 03:58:38;;;;;;;13.23;6.10;;;10.80;99.90;;;;;;4945992;29;20051;-58
2022/06/04 04:01:26;;;;;;;11.05;5.85;;;10.80;99.90;;;;;;4944011;29;20555;-58
2022/06/04 04:03:53;;;;;;;13.25;5.97;;;10.80;99.90;;;;;;4945345;29;20043;-59
2022/06/04 04:06:24;;;;;;;12.50;6.35;;;10.80;99.90;;;;;;4945041;29;20056;-59
2022/06/04 04:08:51;;;;;;;10.52;5.30;;;10.80;99.90;;;;;;4943894;29;20096;-59
2022/06/04 04:11:20;;;;;;;11.32;5.53;;;10.90;99.90;;;;;;4945719;29;20137;-59
2022/06/04 04:13:47;;;;;;;10.88;5.95;;;10.90;99.90;;;;;;4943440;29;20090;-58
2022/06/04 04:16:15;;;;;;;15.00;6.10;;;11.00;99.90;;;;;;4946728;29;20055;-59
2022/06/04 04:18:41;;;;;;;13.48;5.90;;;10.90;99.90;;;;;;4947166;29;20420;-58
2022/06/04 04:21:15;;;;;;;12.00;5.95;;;11.00;99.90;;;;;;4927856;29;20113;-59
2022/06/04 04:23:42;;;;;;;12.52;6.38;;;11.00;99.90;;;;;;4945339;29;20075;-58
2022/06/04 04:26:11;;;;;;;10.43;5.90;;;11.00;99.90;;;;;;4943429;29;20110;-58
2022/06/04 04:28:37;;;;;;;10.65;5.80;;;11.10;99.90;;;;;;4945409;29;20054;-58
2022/06/04 04:31:13;;;;;;;11.52;6.15;;;11.10;99.90;;;;;;4943134;29;20062;-59
2022/06/04 04:33:39;;;;;;;12.00;6.45;;;11.20;99.90;;;;;;4944686;29;20691;-58
2022/06/04 04:36:06;;;;;;;10.43;5.53;;;11.30;99.90;;;;;;4944381;29;20472;-58
2022/06/04 04:38:32;;;;;;;11.45;6.50;;;11.30;99.90;;;;;;4943682;29;20051;-58
2022/06/04 04:40:57;;;;;;;12.20;6.57;;;11.40;99.90;;;;;;4969871;28;20047;-59
2022/06/04 04:43:23;;;;;;;11.70;6.20;;;11.50;99.90;;;;;;4981411;28;20613;-58
2022/06/04 04:45:50;;;;;;;11.88;6.85;;;11.50;99.90;;;;;;4983641;28;20035;-58
2022/06/04 04:48:16;;;;;;;10.18;6.22;;;11.50;99.90;;;;;;4962158;28;20058;-58
2022/06/04 04:50:47;;;;;;;10.85;6.55;;;11.60;99.90;;;;;;4944567;29;20460;-59
2022/06/04 04:53:13;;;;;;;10.18;6.22;;;11.60;99.90;;;;;;4944098;29;20058;-59
2022/06/04 04:55:39;;;;;;;12.00;6.20;;;11.70;99.90;;;;;;4946681;29;20074;-59
2022/06/04 04:58:05;;;;;;;10.80;6.18;;;11.90;99.90;;;;;;4945555;29;20539;-59
2022/06/04 05:00:32;;;;;;;13.23;6.55;;;12.00;99.90;;;;;;4925459;29;20056;-59
2022/06/04 05:03:00;;;;;;;11.05;5.85;;;12.10;99.90;;;;;;4944563;29;20047;-59
2022/06/04 05:05:26;;;;;;;12.30;6.43;;;12.20;99.90;;;;;;4942804;29;20051;-59
2022/06/04 05:07:52;;;;;;;11.20;5.53;;;12.30;99.90;;;;;;4926568;29;20527;-58
2022/06/04 05:10:17;;;;;;;12.95;6.18;;;12.50;99.90;;;;;;4943652;29;20043;-58
2022/06/04 05:12:43;;;;;;;11.30;5.93;;;12.50;99.90;;;;;;4943581;29;20108;-59
2022/06/04 05:15:10;;;;;;;11.00;6.13;;;12.70;99.90;;;;;;4944500;29;20050;-57
2022/06/04 05:17:36;;;;;;;12.88;7.53;;;12.80;99.90;;;;;;4942404;29;20052;-58
2022/06/04 05:20:03;;;;;;;11.40;5.85;;;12.70;99.90;;;;;;4944561;29;20106;-59
2022/06/04 05:22:29;;;;;;;13.85;5.40;;;12.70;99.90;;;;;;4942445;29;20036;-59
2022/06/04 05:24:54;;;;;;;9.05;6.05;;;12.90;99.90;;;;;;4944230;29;20051;-58
2022/06/04 05:27:20;;;;;;;8.50;5.68;;;12.90;99.90;;;;;;4942946;29;20059;-58
2022/06/04 05:29:46;;;;;;;10.55;5.70;;;13.00;99.90;;;;;;4943187;29;20055;-59
2022/06/04 05:32:12;;;;;;;10.73;6.03;;;13.10;99.90;;;;;;4943761;29;20056;-59
2022/06/04 05:34:38;;;;;;;10.68;6.32;;;13.20;99.90;;;;;;4942200;29;20079;-59
2022/06/04 05:37:05;;;;;;;11.00;6.30;;;13.30;99.90;;;;;;4944167;29;20067;-59
2022/06/04 05:39:31;;;;;;;9.77;5.82;;;13.30;99.90;;;;;;4944169;28;20051;-59
2022/06/04 05:41:59;;;;;;;9.40;5.45;;;13.40;99.90;;;;;;4982512;28;20045;-59
2022/06/04 05:44:25;;;;;;;11.32;6.40;;;13.40;99.90;;;;;;4980878;28;20042;-59
2022/06/04 05:46:51;;;;;;;11.43;6.30;;;13.60;99.90;;;;;;4981755;28;20051;-59
2022/06/04 05:49:19;;;;;;;10.57;5.07;;;13.70;99.90;;;;;;4964034;28;20051;-58
2022/06/04 05:51:45;;;;;;;9.05;4.30;;;13.70;99.90;;;;;;4941843;29;20048;-58
2022/06/04 05:54:11;;;;;;;10.90;5.35;;;13.60;99.90;;;;;;4943589;29;20062;-59
2022/06/04 05:56:40;;;;;;;8.85;4.43;;;13.60;99.90;;;;;;4941554;29;20071;-59
2022/06/04 05:59:09;;;;;;;8.00;4.30;;;13.70;99.90;;;;;;4910692;29;20062;-59
2022/06/04 06:01:38;;;;;;;9.40;4.60;;;13.80;99.90;;;;;;4942030;29;20480;-59
2022/06/04 06:04:05;;;;;;;9.60;4.78;;;13.80;99.90;;;;;;4942575;29;20048;-58
2022/06/04 06:06:32;;;;;;;7.88;4.63;;;13.60;99.90;;;;;;4943449;29;20066;-59
2022/06/04 06:09:04;;;;;;;9.57;4.85;;;13.40;99.90;;;;;;4943289;29;20054;-59
2022/06/04 06:11:30;;;;;;;8.55;4.05;;;13.30;99.90;;;;;;4945865;29;20526;-59
2022/06/04 06:13:56;;;;;;;8.10;4.65;;;13.40;99.90;;;;;;4939167;29;20091;-59
2022/06/04 06:16:29;;;;;;;9.38;4.88;;;13.40;99.90;;;;;;4939660;29;20043;-59
2022/06/04 06:18:55;;;;;;;15.80;5.30;;;13.30;99.90;;;;;;4938697;29;20047;-59
2022/06/04 06:21:23;;;;;;;13.32;5.50;;;13.60;99.90;;;;;;4939066;29;20063;-58
2022/06/04 06:23:50;;;;;;;10.20;5.18;;;13.80;99.90;;;;;;4940099;29;20059;-59
2022/06/04 06:26:22;;;;;;;9.98;5.15;;;13.90;99.90;;;;;;4937727;29;20051;-59
2022/06/04 06:28:49;;;;;;;9.77;4.80;;;14.00;99.90;;;;;;4922597;29;20064;-59
2022/06/04 06:31:18;;;;;;;10.57;4.75;;;13.90;99.90;;;;;;4937689;29;20960;-59
2022/06/04 06:33:44;;;;;;;9.90;5.03;;;14.00;99.90;;;;;;4939805;29;20056;-60
2022/06/04 06:36:12;;;;;;;8.93;4.65;;;14.00;99.90;;;;;;4939071;29;20133;-59
2022/06/04 06:38:39;;;;;;;9.45;5.13;;;14.10;99.90;;;;;;4937852;29;20103;-59
2022/06/04 06:41:06;;;;;;;9.65;4.80;;;14.40;99.90;;;;;;4966598;28;20054;-59
2022/06/04 06:43:35;;;;;;;11.32;5.60;;;14.50;99.90;;;;;;4975920;28;20459;-59
2022/06/04 06:46:16;;;;;;;8.65;4.55;;;14.60;99.90;;;;;;4979590;28;20480;-59
2022/06/04 06:48:43;;;;;;;10.18;6.25;;;14.50;99.90;;;;;;4971335;28;20050;-59
2022/06/04 06:51:15;;;;;;;9.63;5.25;;;14.80;99.90;;;;;;4939136;29;20051;-59
2022/06/04 06:53:41;;;;;;;10.05;5.45;;;15.00;99.90;;;;;;4939670;29;20047;-59
2022/06/04 06:56:13;;;;;;;7.97;5.28;;;15.20;99.90;;;;;;4937172;29;20039;-59
2022/06/04 06:58:39;;;;;;;10.00;5.60;;;15.30;99.90;;;;;;4939569;29;20058;-59
2022/06/04 07:01:06;;;;;;;11.10;4.93;;;15.30;99.90;;;;;;4937364;29;20051;-58
2022/06/04 07:03:32;;;;;;;7.90;4.57;;;15.20;99.90;;;;;;4938630;29;20053;-58
2022/06/04 07:05:57;;;;;;;11.43;5.68;;;14.90;99.90;;;;;;4938519;29;20054;-59
2022/06/04 07:08:23;;;;;;;10.13;4.88;;;14.90;99.90;;;;;;4938284;29;20048;-59
2022/06/04 07:10:49;;;;;;;7.82;4.35;;;14.80;99.90;;;;;;4939639;29;20062;-59
2022/06/04 07:13:15;;;;;;;13.30;4.90;;;14.80;99.90;;;;;;4937063;29;20042;-58
2022/06/04 07:15:42;;;;;;;9.07;4.45;;;14.70;99.90;;;;;;4939775;29;20633;-59
2022/06/04 07:18:14;;;;;;;10.77;4.65;;;14.90;99.90;;;;;;4937286;29;20052;-59
2022/06/04 07:20:40;;;;;;;;;;;14.90;99.90;;;;;;4939580;29;20058;-59
2022/06/04 07:23:07;;;;;;;9.00;4.47;;;15.10;99.90;;;;;;4938757;29;19982;-59
2022/06/04 07:25:33;;;;;;;9.93;4.68;;;15.20;99.90;;;;;;4941031;29;20048;-59
2022/06/04 07:27:59;;;;;;;9.77;4.88;;;15.30;99.90;;;;;;4940984;29;20040;-59
2022/06/04 07:30:25;;;;;;;8.88;4.70;;;15.40;99.90;;;;;;4938531;29;20578;-59
2022/06/04 07:32:51;;;;;;;9.80;5.13;;;15.30;99.90;;;;;;4942899;29;20055;-59
2022/06/04 07:35:17;;;;;;;8.55;4.22;;;15.40;99.90;;;;;;4941227;29;20051;-58
2022/06/04 07:37:43;;;;;;;8.07;4.22;;;15.40;99.90;;;;;;4925658;29;20769;-59
2022/06/04 07:40:11;;;;;;;8.82;4.95;;;15.60;99.90;;;;;;4937219;28;20074;-59
2022/06/04 07:42:37;;;;;;;8.88;4.05;;;15.60;99.90;;;;;;4980539;28;20058;-59
2022/06/04 07:45:04;;;;;;;9.38;4.55;;;15.60;99.90;;;;;;4981472;28;20051;-59
2022/06/04 07:47:30;;;;;;;7.88;4.10;;;15.40;99.90;;;;;;4979452;28;20132;-59
2022/06/04 07:49:56;;;;;;;10.15;4.32;;;15.70;99.90;;;;;;4952601;28;20051;-59
2022/06/04 07:52:23;;;;;;;9.80;4.40;;;15.70;99.90;;;;;;4940637;29;20130;-58
2022/06/04 07:54:49;;;;;;;8.13;3.95;;;15.60;99.90;;;;;;4942645;29;20122;-58
2022/06/04 07:57:15;;;;;;;8.40;3.92;;;15.70;99.90;;;;;;4941545;29;20040;-59
2022/06/04 07:59:42;;;;;;;10.57;4.47;;;15.70;99.90;;;;;;4941653;29;20138;-59
2022/06/04 08:02:10;;;;;;;9.07;4.40;;;15.90;99.90;;;;;;4941970;29;20066;-59
2022/06/04 08:04:36;;;;;;;9.23;4.70;;;16.00;99.90;;;;;;4940578;29;20071;-59
2022/06/04 08:07:04;;;;;;;10.07;4.13;;;16.00;99.90;;;;;;4942759;29;20074;-59
2022/06/04 08:09:30;;;;;;;9.57;3.85;;;15.90;99.90;;;;;;4940588;29;20059;-59
2022/06/04 08:11:56;;;;;;;8.73;3.97;;;15.80;99.90;;;;;;4942365;29;20040;-59
2022/06/04 08:14:24;;;;;;;9.93;4.15;;;15.90;99.90;;;;;;4940537;29;20788;-59
2022/06/04 08:16:52;;;;;;;8.45;4.35;;;15.90;99.90;;;;;;4941640;29;20529;-59
2022/06/04 08:19:19;;;;;;;9.38;4.88;;;16.10;99.90;;;;;;4942062;29;20048;-59
2022/06/04 08:21:45;;;;;;;13.63;4.18;;;15.90;99.90;;;;;;4923038;29;20066;-59
2022/06/04 08:24:12;;;;;;;10.32;4.50;;;16.10;99.90;;;;;;4942551;29;20047;-59
2022/06/04 08:26:40;;;;;;;9.77;4.70;;;16.20;99.90;;;;;;4939841;29;20134;-56
2022/06/04 08:29:07;;;;;;;9.27;3.67;;;16.30;99.90;;;;;;4941886;29;20040;-55
2022/06/04 08:31:33;;;;;;;10.70;4.80;;;16.30;99.90;;;;;;4907878;29;20490;-59
2022/06/04 08:33:59;;;;;;;8.02;4.32;;;16.50;99.90;;;;;;4941070;29;20089;-59
2022/06/04 08:36:25;;;;;;;7.32;4.05;;;16.40;99.90;;;;;;4941715;29;20074;-59
2022/06/04 08:38:51;;;;;;;7.75;4.10;;;16.50;99.90;;;;;;4941328;29;20111;-59
2022/06/04 08:41:46;;;;;;;7.45;4.72;;;16.50;99.90;;;;;;4974823;28;20082;-59
2022/06/04 08:44:15;;;;;;;11.48;4.50;;;16.40;99.90;;;;;;4948950;28;20058;-58
2022/06/04 08:46:51;;;;;;;6.85;3.85;;;16.30;99.90;;;;;;4979751;28;20058;-59
2022/06/04 08:49:37;;;;;;;9.40;4.22;;;16.40;99.90;;;;;;4961848;28;20937;-59
2022/06/04 08:52:14;;;;;;;9.32;3.80;;;16.40;99.90;;;;;;4939548;29;20055;-59
2022/06/04 08:57:33;;;;;;;7.90;4.05;;;16.50;99.90;;;;;;4940639;29;20095;-61
2022/06/04 09:00:29;;;;;;;10.68;3.97;;;16.50;99.90;;;;;;4940191;29;20060;-57
2022/06/04 09:03:13;;;;;;;9.75;3.50;;;16.60;99.90;;;;;;4941207;29;20496;-57
2022/06/04 09:06:03;;;;;;;7.95;3.92;;;16.70;99.90;;;;;;4939757;29;20649;-57
2022/06/04 09:08:34;;;;;;;9.80;3.15;;;16.70;99.90;;;;;;4940019;29;20080;-57
2022/06/04 09:11:04;;;;;;;8.25;3.90;;;16.80;99.90;;;;;;4941509;29;20079;-57
2022/06/04 09:13:35;;;;;;;7.15;3.42;;;16.80;99.90;;;;;;4939997;28;20047;-56
2022/06/04 09:16:15;;;;;;;9.98;4.15;;;16.80;99.90;;;;;;4968925;28;20044;-57
2022/06/04 09:18:42;;;;;;;9.63;3.35;;;17.00;99.90;;;;;;4970110;28;20098;-57
2022/06/04 09:21:10;;;;;;;10.35;4.18;;;17.00;99.90;;;;;;4970798;28;20055;-56
2022/06/04 09:23:35;;;;;;;7.70;4.00;;;17.20;99.90;;;;;;4979894;28;20383;-58
2022/06/04 09:26:14;;;;;;;9.32;4.00;;;17.00;99.90;;;;;;4969645;28;20039;-57
2022/06/04 09:29:15;;;;;;;7.13;3.35;;;17.10;99.90;;;;;;4951765;28;20050;-56
2022/06/04 09:32:03;;;;;;;7.55;3.40;;;17.10;99.90;;;;;;4929328;28;20057;-57
2022/06/04 09:34:37;;;;;;;10.07;3.90;;;16.90;99.90;;;;;;4964189;28;20057;-57
2022/06/04 09:37:06;;;;;;;6.40;3.47;;;17.10;99.90;;;;;;4967734;28;20050;-57
2022/06/04 09:39:34;;;;;;;8.98;4.00;;;17.10;99.90;;;;;;4967772;28;20042;-57
2022/06/04 09:42:04;;;;;;;9.68;3.67;;;17.20;99.90;;;;;;4967348;28;20086;-56
2022/06/04 09:44:32;;;;;;;8.48;3.50;;;17.20;99.90;;;;;;4963067;28;20106;-57
2022/06/04 09:47:09;;;;;;;11.07;3.83;;;17.30;99.90;;;;;;4959838;29;20047;-57
2022/06/04 09:49:42;;;;;;;10.88;4.10;;;17.40;99.90;;;;;;4962907;29;20051;-57
2022/06/04 09:52:33;;;;;;;8.50;4.03;;;17.50;99.90;;;;;;4960946;29;20039;-59
2022/06/04 09:55:08;;;;;;;9.15;3.60;;;17.70;99.90;;;;;;4963407;29;20523;-59
2022/06/04 09:57:36;;;;;;;8.20;3.67;;;17.70;99.90;;;;;;4964498;29;20046;-59
2022/06/04 10:00:16;;;;;;;10.23;4.47;;;17.80;99.90;;;;;;4961501;29;20364;-59
2022/06/04 10:03:04;;;;;;;7.40;3.70;;;17.80;99.90;;;;;;4962492;29;20039;-60
2022/06/04 10:05:32;;;;;;;14.50;3.75;;;17.80;99.90;;;;;;4961125;29;20123;-59
2022/06/04 10:07:58;;;;;;;9.80;4.05;;;17.90;99.90;;;;;;4962166;29;20140;-59
2022/06/04 10:10:37;;;;;;;6.90;3.30;;;17.80;99.90;;;;;;4944905;29;20071;-58
2022/06/04 10:16:19;;;;;;;;;;;17.50;99.90;;;;;;4945471;29;20059;-59
2022/06/04 10:18:57;;;;;;;6.43;3.00;;;17.60;99.90;;;;;;4961322;29;19922;-59
2022/06/04 10:21:40;;;;;;;9.85;3.80;;;17.60;99.90;;;;;;4961204;29;20063;-59
2022/06/04 10:24:22;;;;;;;11.35;3.75;;;17.60;99.90;;;;;;4962558;29;20130;-59
2022/06/04 10:26:59;;;;;;;7.85;3.30;;;17.60;99.90;;;;;;4960529;29;20062;-59
2022/06/04 10:30:10;;;;;;;7.45;3.85;;;17.70;99.90;;;;;;4961654;29;20051;-59
2022/06/04 10:32:51;;;;;;;6.15;3.08;;;17.90;99.90;;;;;;4934532;28;20058;-59
2022/06/04 10:35:25;;;;;;;8.38;3.40;;;17.80;99.90;;;;;;4951008;29;20126;-59
2022/06/04 10:38:12;;;;;;;6.03;2.88;;;17.90;99.90;;;;;;4953335;29;20027;-59
2022/06/04 10:40:53;;;;;;;7.03;3.72;;;18.00;99.90;;;;;;4962816;28;20058;-59
2022/06/04 10:43:53;;;;;;;7.50;3.22;;;18.00;99.90;;;;;;4979196;28;20827;-59
2022/06/04 10:46:54;;;;;;;6.97;3.60;;;18.10;99.90;;;;;;4980228;28;20046;-59
2022/06/04 10:49:38;;;;;;;9.05;3.75;;;18.20;99.90;;;;;;4927753;29;20067;-59
2022/06/04 10:52:25;;;;;;;9.10;3.72;;;18.00;99.90;;;;;;4940473;29;20039;-59
2022/06/04 10:55:18;;;;;;;8.15;3.80;;;18.10;99.90;;;;;;4942516;29;20114;-60
2022/06/04 10:58:25;;;;;;;9.32;3.63;;;17.90;99.90;;;;;;4942647;29;20198;-59
2022/06/04 11:01:11;;;;;;;8.85;3.85;;;18.10;99.90;;;;;;4881289;29;21136;-59
2022/06/04 11:04:01;;;;;;;8.73;3.67;;;18.00;99.90;;;;;;4883289;29;20048;-59
2022/06/04 11:06:27;;;;;;;7.35;3.20;;;18.30;99.90;;;;;;4929362;29;20524;-59
2022/06/04 11:09:05;;;;;;;9.98;3.90;;;18.30;99.90;;;;;;4940762;29;20048;-60
2022/06/04 11:11:39;;;;;;;6.75;3.50;;;18.20;99.90;;;;;;4944155;29;20047;-60
2022/06/04 11:14:44;;;;;;;7.72;3.97;;;18.30;99.90;;;;;;4925725;29;20043;-56
2022/06/04 11:17:18;;;;;;;9.90;4.22;;;18.50;99.90;;;;;;4939699;29;20059;-57
2022/06/04 11:20:04;;;;;;;8.15;3.28;;;18.40;99.90;;;;;;4942330;29;20107;-57
2022/06/04 11:22:38;;;;;;;9.18;4.00;;;18.30;99.90;;;;;;4940304;29;20040;-57
2022/06/04 11:25:32;;;;;;;9.32;4.60;;;18.30;99.90;;;;;;4941587;29;20058;-57
2022/06/04 11:28:23;;;;;;;8.90;3.97;;;18.50;99.90;;;;;;4942277;29;20111;-57
2022/06/04 11:31:03;;;;;;;9.60;4.63;;;18.40;99.90;;;;;;4940049;29;20083;-56
2022/06/04 11:34:18;;;;;;;9.25;4.13;;;18.60;99.90;;;;;;4941930;29;20055;-57
2022/06/04 11:37:02;;;;;;;8.63;4.00;;;18.60;99.90;;;;;;4942638;29;20493;-57
2022/06/04 11:39:48;;;;;;;8.77;4.00;;;18.70;99.90;;;;;;4941824;28;20058;-56
2022/06/04 11:42:47;;;;;;;9.02;4.10;;;18.50;99.90;;;;;;4980428;28;20077;-60
2022/06/04 11:45:19;;;;;;;8.00;3.63;;;18.70;99.90;;;;;;4980691;28;20054;-60
2022/06/04 11:48:26;;;;;;;9.40;4.35;;;18.60;99.90;;;;;;4981541;28;20058;-60
2022/06/04 11:51:29;;;;;;;12.90;4.70;;;18.60;99.90;;;;;;4865942;29;20065;-60
2022/06/04 11:54:23;;;;;;;9.80;4.68;;;18.20;99.90;;;;;;4943649;29;20091;-60
2022/06/04 11:57:03;;;;;;;8.35;4.20;;;18.20;99.90;;;;;;4940891;29;20056;-60
2022/06/04 11:59:46;;;;;;;10.15;4.57;;;18.40;99.90;;;;;;4941835;29;20083;-59
2022/06/04 12:02:27;;;;;;;12.00;4.85;;;18.70;99.90;;;;;;4942143;29;20089;-60
2022/06/04 12:05:04;;;;;;;10.13;4.47;;;18.30;99.90;;;;;;4939946;29;20124;-59
2022/06/04 12:07:36;;;;;;;11.07;4.53;;;18.40;99.90;;;;;;4942222;29;20175;-59
2022/06/04 12:10:10;;;;;;;;;;;18.20;99.90;;;;;;4941245;29;20487;-59
2022/06/04 12:12:50;;;;;;;12.23;5.32;;;18.20;99.90;;;;;;4940961;29;19923;-59
2022/06/04 12:15:56;;;;;;;16.55;7.18;;;18.30;99.90;;;;;;4942086;29;20103;-59
2022/06/04 12:18:35;;;;;;;11.32;4.47;;;18.10;99.90;;;;;;4847718;29;20054;-59
2022/06/04 12:24:31;;;;;;;9.93;5.15;;;18.60;99.90;;;;;;4928619;29;20086;-60
2022/06/04 12:27:22;;;;;;;11.73;5.40;;;18.60;99.90;;;;;;4935688;29;20107;-59
2022/06/04 12:29:53;;;;;;;12.47;5.57;;;18.40;99.90;;;;;;4943922;29;20059;-59
2022/06/04 12:32:54;;;;;;;12.40;5.80;;;18.50;99.90;;;;;;4945172;29;20480;-59
2022/06/04 12:35:22;;;;;;;11.07;4.88;;;18.00;99.90;;;;;;4927372;29;20331;-59
2022/06/04 12:37:58;;;;;;;10.85;5.10;;;18.20;99.90;;;;;;4927829;29;20527;-60
2022/06/04 12:40:24;;;;;;;10.65;4.00;;;18.40;99.90;;;;;;4961291;28;20462;-59
2022/06/04 12:43:14;;;;;;;10.90;5.25;;;18.50;99.90;;;;;;4982080;28;20055;-60
2022/06/04 12:45:47;;;;;;;10.93;4.90;;;18.80;99.90;;;;;;4966167;28;20058;-59
2022/06/04 12:48:31;;;;;;;10.98;4.68;;;18.60;99.90;;;;;;4980534;28;20120;-59
2022/06/04 12:51:15;;;;;;;10.38;4.50;;;18.60;99.90;;;;;;4944299;29;20044;-59
2022/06/04 12:53:59;;;;;;;8.63;4.07;;;18.80;99.90;;;;;;4944987;29;20078;-59
2022/06/04 12:56:34;;;;;;;10.55;4.53;;;18.80;99.90;;;;;;4942859;29;20059;-59
2022/06/04 12:59:02;;;;;;;8.43;4.20;;;18.50;99.90;;;;;;4944640;29;20062;-59
2022/06/04 13:01:32;;;;;;;10.85;4.88;;;18.80;99.90;;;;;;4943602;29;20040;-59
2022/06/04 13:04:20;;;;;;;9.48;3.92;;;18.60;99.90;;;;;;4943517;29;20051;-60
2022/06/04 13:06:51;;;;;;;13.95;4.07;;;18.00;99.90;;;;;;4944905;29;20059;-59
2022/06/04 13:09:43;;;;;;;9.48;3.97;;;18.00;99.90;;;;;;4942568;29;20047;-59
2022/06/04 13:12:23;;;;;;;9.65;4.25;;;18.20;99.90;;;;;;4944406;29;20073;-59
2022/06/04 13:14:55;;;;;;;11.98;4.03;;;18.20;99.90;;;;;;4944391;29;20058;-59
2022/06/04 13:17:48;;;;;;;8.20;3.80;;;18.10;99.90;;;;;;4942448;29;20091;-59
2022/06/04 13:20:16;;;;;;;9.98;4.35;;;18.00;99.90;;;;;;4944468;29;20055;-60
2022/06/04 13:22:57;;;;;;;10.40;5.25;;;18.00;99.90;;;;;;4942967;29;20070;-59
2022/06/04 13:25:30;;;;;;;10.38;4.78;;;18.20;99.90;;;;;;4943130;29;20044;-59
2022/06/04 13:27:56;;;;;;;11.27;5.53;;;18.20;99.90;;;;;;4943710;29;20137;-59
2022/06/04 13:30:26;;;;;;;10.45;4.88;;;18.30;99.90;;;;;;4941990;29;20106;-60